createdAt,value
2018-10-15T00:00:16.817Z,989.22
2018-10-15T00:01:16.677Z,989.19
2018-10-15T00:02:16.623Z,989.23
2018-10-15T00:03:16.585Z,989.19
2018-10-15T00:04:16.553Z,989.24
2018-10-15T00:05:16.527Z,989.23
2018-10-15T00:06:16.597Z,989.25
2018-10-15T00:07:16.475Z,989.30
2018-10-15T00:08:16.449Z,989.34
2018-10-15T00:09:16.416Z,989.38
2018-10-15T00:10:16.407Z,989.41
2018-10-15T00:11:16.372Z,989.46
2018-10-15T00:12:16.452Z,989.47
2018-10-15T00:13:16.344Z,989.47
2018-10-15T00:14:16.289Z,989.46
2018-10-15T00:15:16.276Z,989.50
2018-10-15T00:16:16.230Z,989.51
2018-10-15T00:17:16.293Z,989.51
2018-10-15T00:18:16.182Z,989.54
2018-10-15T00:19:16.158Z,989.51
2018-10-15T00:20:16.137Z,989.56
2018-10-15T00:21:16.122Z,989.58
2018-10-15T00:22:16.179Z,989.58
2018-10-15T00:23:16.052Z,989.54
2018-10-15T00:24:16.023Z,989.56
2018-10-15T00:25:16.009Z,989.54
2018-10-15T00:26:15.972Z,989.57
2018-10-15T00:27:16.003Z,989.58
2018-10-15T00:28:15.936Z,989.57
2018-10-15T00:29:15.942Z,989.62
2018-10-15T00:30:15.869Z,989.63
2018-10-15T00:31:15.851Z,989.59
2018-10-15T00:32:15.921Z,989.59
2018-10-15T00:33:15.785Z,989.58
2018-10-15T00:34:15.787Z,989.55
2018-10-15T00:35:15.784Z,989.55
2018-10-15T00:36:15.705Z,989.53
2018-10-15T00:37:15.692Z,989.53
2018-10-15T00:38:15.759Z,989.53
2018-10-15T00:39:15.633Z,989.50
2018-10-15T00:40:15.617Z,989.55
2018-10-15T00:41:15.594Z,989.60
2018-10-15T00:42:15.553Z,989.63
2018-10-15T00:43:15.580Z,989.64
2018-10-15T00:44:15.507Z,989.65
2018-10-15T00:45:15.507Z,989.65
2018-10-15T00:46:15.446Z,989.66
2018-10-15T00:47:15.435Z,989.69
2018-10-15T00:48:15.388Z,989.67
2018-10-15T00:49:15.429Z,989.68
2018-10-15T00:50:15.344Z,989.69
2018-10-15T00:51:15.331Z,989.66
2018-10-15T00:52:15.365Z,989.71
2018-10-15T00:53:15.270Z,989.71
2018-10-15T00:54:15.294Z,989.76
2018-10-15T00:55:15.292Z,989.78
2018-10-15T00:56:15.177Z,989.78
2018-10-15T00:57:15.169Z,989.79
2018-10-15T00:58:15.148Z,989.78
2018-10-15T00:59:15.128Z,989.81
2018-10-15T01:00:15.123Z,989.83
2018-10-15T01:01:15.049Z,989.80
2018-10-15T01:02:15.033Z,989.83
2018-10-15T01:03:15.009Z,989.89
2018-10-15T01:04:14.976Z,989.91
2018-10-15T01:05:15.026Z,989.96
2018-10-15T01:06:14.946Z,989.97
2018-10-15T01:07:14.901Z,990.03
2018-10-15T01:08:14.867Z,990.07
2018-10-15T01:09:14.877Z,990.09
2018-10-15T01:10:14.814Z,990.08
2018-10-15T01:11:14.851Z,990.09
2018-10-15T01:12:14.801Z,990.09
2018-10-15T01:13:14.745Z,990.08
2018-10-15T01:14:14.760Z,990.14
2018-10-15T01:15:14.692Z,990.19
2018-10-15T01:16:14.757Z,990.19
2018-10-15T01:17:14.632Z,990.20
2018-10-15T01:18:14.619Z,990.28
2018-10-15T01:19:14.620Z,990.30
2018-10-15T01:20:14.571Z,990.29
2018-10-15T01:21:14.574Z,990.33
2018-10-15T01:22:14.505Z,990.34
2018-10-15T01:23:14.485Z,990.34
2018-10-15T01:24:14.449Z,990.35
2018-10-15T01:25:14.425Z,990.37
2018-10-15T01:26:14.422Z,990.39
2018-10-15T01:27:14.490Z,990.41
2018-10-15T01:28:14.340Z,990.42
2018-10-15T01:29:14.311Z,990.43
2018-10-15T01:30:14.297Z,990.46
2018-10-15T01:31:14.267Z,990.46
2018-10-15T01:32:14.273Z,990.44
2018-10-15T01:33:14.324Z,990.47
2018-10-15T01:34:14.238Z,990.51
2018-10-15T01:35:14.163Z,990.51
2018-10-15T01:36:14.138Z,990.55
2018-10-15T01:37:14.105Z,990.59
2018-10-15T01:38:14.197Z,990.60
2018-10-15T01:39:14.043Z,990.60
2018-10-15T01:40:14.029Z,990.61
2018-10-15T01:41:14.027Z,990.64
2018-10-15T01:54:38.939Z,990.80
2018-10-15T01:55:38.830Z,990.81
2018-10-15T01:56:38.803Z,990.82
2018-10-15T01:57:38.747Z,990.85
2018-10-15T01:58:38.735Z,990.86
2018-10-15T01:59:38.775Z,990.86
2018-10-15T02:00:38.694Z,990.89
2018-10-15T02:01:38.646Z,990.86
2018-10-15T02:02:38.595Z,990.83
2018-10-15T02:03:38.566Z,990.80
2018-10-15T02:04:38.644Z,990.84
2018-10-15T02:05:38.590Z,990.85
2018-10-15T02:06:38.526Z,990.83
2018-10-15T02:07:38.467Z,990.88
2018-10-15T02:08:38.467Z,990.92
2018-10-15T02:09:38.414Z,990.95
2018-10-15T02:10:39.127Z,991.00
2018-10-15T02:11:38.378Z,991.03
2018-10-15T02:12:38.313Z,991.06
2018-10-15T02:13:38.317Z,991.10
2018-10-15T02:14:38.276Z,991.12
2018-10-15T02:15:38.269Z,991.11
2018-10-15T02:16:38.338Z,991.15
2018-10-15T02:17:38.223Z,991.07
2018-10-15T02:18:38.173Z,991.09
2018-10-15T02:19:38.211Z,991.08
2018-10-15T02:20:38.164Z,991.02
2018-10-15T02:21:38.191Z,991.05
2018-10-15T02:22:38.080Z,991.02
2018-10-15T02:23:38.133Z,991.07
2018-10-15T02:24:38.042Z,991.05
2018-10-15T02:25:37.972Z,991.09
2018-10-15T02:26:38.009Z,991.08
2018-10-15T02:27:37.986Z,991.08
2018-10-15T02:28:37.926Z,991.11
2018-10-15T02:29:37.904Z,991.12
2018-10-15T02:30:37.878Z,991.09
2018-10-15T02:31:37.901Z,991.07
2018-10-15T02:32:37.923Z,991.07
2018-10-15T02:33:37.773Z,991.07
2018-10-15T02:34:37.817Z,991.09
2018-10-15T02:35:37.741Z,991.10
2018-10-15T02:36:37.704Z,991.09
2018-10-15T02:37:37.730Z,991.12
2018-10-15T02:38:37.686Z,991.15
2018-10-15T02:39:37.651Z,991.13
2018-10-15T02:40:37.602Z,991.16
2018-10-15T02:41:37.614Z,991.15
2018-10-15T02:42:37.605Z,991.16
2018-10-15T02:43:37.557Z,991.19
2018-10-15T02:44:37.512Z,991.16
2018-10-15T02:45:37.503Z,991.11
2018-10-15T02:46:37.447Z,991.15
2018-10-15T02:47:37.423Z,991.14
2018-10-15T02:48:37.601Z,991.10
2018-10-15T02:49:37.342Z,991.10
2018-10-15T02:50:37.354Z,991.10
2018-10-15T02:51:37.322Z,991.09
2018-10-15T02:52:37.302Z,991.08
2018-10-15T02:53:37.252Z,991.04
2018-10-15T02:54:37.382Z,991.08
2018-10-15T02:55:37.261Z,991.07
2018-10-15T02:56:37.163Z,991.05
2018-10-15T02:57:37.187Z,991.03
2018-10-15T02:58:37.134Z,991.06
2018-10-15T02:59:37.189Z,991.05
2018-10-15T03:00:37.201Z,991.03
2018-10-15T03:01:37.051Z,991.03
2018-10-15T03:02:37.032Z,991.00
2018-10-15T03:03:36.988Z,991.02
2018-10-15T03:04:36.978Z,991.01
2018-10-15T03:05:37.122Z,991.03
2018-10-15T03:06:36.925Z,991.02
2018-10-15T03:07:36.854Z,991.01
2018-10-15T03:08:36.945Z,990.97
2018-10-15T03:09:36.873Z,990.98
2018-10-15T03:10:36.963Z,990.98
2018-10-15T03:11:36.806Z,991.00
2018-10-15T03:12:36.776Z,990.98
2018-10-15T03:13:36.740Z,990.97
2018-10-15T03:14:36.719Z,990.97
2018-10-15T03:15:36.835Z,991.01
2018-10-15T03:16:36.692Z,990.96
2018-10-15T03:17:36.626Z,991.00
2018-10-15T03:18:36.629Z,991.02
2018-10-15T03:19:36.602Z,991.01
2018-10-15T03:20:36.676Z,991.02
2018-10-15T03:21:36.573Z,991.03
2018-10-15T03:22:36.486Z,991.03
2018-10-15T03:23:36.466Z,991.07
2018-10-15T03:24:36.438Z,991.05
2018-10-15T03:25:36.438Z,991.09
2018-10-15T03:26:36.595Z,991.05
2018-10-15T03:27:36.373Z,991.04
2018-10-15T03:28:36.418Z,991.06
2018-10-15T03:29:36.374Z,991.06
2018-10-15T03:30:36.282Z,991.06
2018-10-15T03:31:36.272Z,991.07
2018-10-15T03:32:36.375Z,991.11
2018-10-15T03:33:36.198Z,991.15
2018-10-15T03:34:36.228Z,991.15
2018-10-15T03:35:36.149Z,991.16
2018-10-15T03:36:36.117Z,991.16
2018-10-15T03:37:36.218Z,991.14
2018-10-15T03:38:36.214Z,991.15
2018-10-15T03:39:36.034Z,991.13
2018-10-15T03:40:36.011Z,991.17
2018-10-15T03:41:35.991Z,991.16
2018-10-15T03:42:35.965Z,991.18
2018-10-15T03:43:36.075Z,991.19
2018-10-15T03:44:35.929Z,991.26
2018-10-15T03:45:35.974Z,991.26
2018-10-15T03:46:35.860Z,991.30
2018-10-15T03:47:35.911Z,991.28
2018-10-15T03:48:35.942Z,991.28
2018-10-15T03:49:35.794Z,991.27
2018-10-15T03:50:35.754Z,991.27
2018-10-15T03:51:35.743Z,991.26
2018-10-15T03:52:35.687Z,991.25
2018-10-15T03:53:35.768Z,991.26
2018-10-15T03:54:35.641Z,991.20
2018-10-15T03:55:35.635Z,991.20
2018-10-15T03:56:35.591Z,991.20
2018-10-15T03:57:35.576Z,991.16
2018-10-15T03:58:35.698Z,991.19
2018-10-15T03:59:35.502Z,991.21
2018-10-15T04:00:35.479Z,991.22
2018-10-15T04:01:35.472Z,991.22
2018-10-15T04:02:35.500Z,991.22
2018-10-15T04:03:35.423Z,991.23
2018-10-15T04:04:35.477Z,991.26
2018-10-15T04:05:35.347Z,991.26
2018-10-15T04:06:35.331Z,991.28
2018-10-15T04:07:35.309Z,991.25
2018-10-15T04:08:35.432Z,991.28
2018-10-15T04:09:35.248Z,991.26
2018-10-15T04:10:35.329Z,991.26
2018-10-15T04:11:35.198Z,991.25
2018-10-15T04:12:35.163Z,991.23
2018-10-15T04:13:35.228Z,991.21
2018-10-15T04:14:35.138Z,991.21
2018-10-15T04:15:35.206Z,991.21
2018-10-15T04:16:35.081Z,991.19
2018-10-15T04:17:35.030Z,991.18
2018-10-15T04:18:35.009Z,991.14
2018-10-15T04:19:34.975Z,991.17
2018-10-15T04:20:35.055Z,991.16
2018-10-15T04:21:34.916Z,991.13
2018-10-15T04:22:34.920Z,991.14
2018-10-15T04:23:34.881Z,991.11
2018-10-15T04:24:34.858Z,991.13
2018-10-15T04:25:34.967Z,991.12
2018-10-15T04:26:34.996Z,991.14
2018-10-15T04:27:34.756Z,991.14
2018-10-15T04:28:34.746Z,991.09
2018-10-15T04:29:34.753Z,991.13
2018-10-15T04:30:34.860Z,991.14
2018-10-15T04:31:34.712Z,991.12
2018-10-15T04:32:34.634Z,991.11
2018-10-15T04:33:34.621Z,991.07
2018-10-15T04:34:34.577Z,991.10
2018-10-15T04:35:34.675Z,991.06
2018-10-15T04:36:34.519Z,991.08
2018-10-15T04:37:34.516Z,991.08
2018-10-15T04:38:34.483Z,991.04
2018-10-15T04:39:34.462Z,991.05
2018-10-15T04:40:34.407Z,991.04
2018-10-15T04:41:34.541Z,991.06
2018-10-15T04:42:34.361Z,991.04
2018-10-15T04:43:34.353Z,991.06
2018-10-15T04:44:34.333Z,991.05
2018-10-15T04:45:34.364Z,991.05
2018-10-15T04:46:34.328Z,991.03
2018-10-15T04:47:34.387Z,991.05
2018-10-15T04:48:34.220Z,991.10
2018-10-15T04:49:34.354Z,991.11
2018-10-15T04:50:34.209Z,991.11
2018-10-15T04:51:34.131Z,991.12
2018-10-15T04:52:34.289Z,991.12
2018-10-15T04:53:34.079Z,991.15
2018-10-15T04:54:34.097Z,991.12
2018-10-15T04:55:34.088Z,991.07
2018-10-15T04:56:34.051Z,991.08
2018-10-15T04:57:34.072Z,991.04
2018-10-15T04:58:33.934Z,991.08
2018-10-15T04:59:33.904Z,991.03
2018-10-15T05:00:34.020Z,991.00
2018-10-15T05:01:33.858Z,990.99
2018-10-15T05:02:33.944Z,990.95
2018-10-15T05:03:33.831Z,990.95
2018-10-15T05:04:33.792Z,990.90
2018-10-15T05:05:33.771Z,990.94
2018-10-15T05:06:33.749Z,990.90
2018-10-15T05:07:33.866Z,990.86
2018-10-15T05:08:33.668Z,990.86
2018-10-15T05:09:33.761Z,990.83
2018-10-15T05:10:33.633Z,990.82
2018-10-15T05:11:33.613Z,990.82
2018-10-15T05:12:33.755Z,990.79
2018-10-15T05:13:33.538Z,990.80
2018-10-15T05:14:33.530Z,990.76
2018-10-15T05:15:33.513Z,990.77
2018-10-15T05:16:33.473Z,990.74
2018-10-15T05:17:33.462Z,990.73
2018-10-15T05:18:33.563Z,990.68
2018-10-15T05:19:33.403Z,990.67
2018-10-15T05:20:33.366Z,990.65
2018-10-15T05:21:33.326Z,990.58
2018-10-15T05:22:33.300Z,990.61
2018-10-15T05:23:33.304Z,990.55
2018-10-15T05:24:33.404Z,990.55
2018-10-15T05:25:33.228Z,990.53
2018-10-15T05:26:33.208Z,990.50
2018-10-15T05:27:33.190Z,990.53
2018-10-15T05:28:33.168Z,990.51
2018-10-15T05:29:33.231Z,990.50
2018-10-15T05:30:33.229Z,990.47
2018-10-15T05:31:33.077Z,990.48
2018-10-15T05:32:33.045Z,990.39
2018-10-15T05:33:33.017Z,990.38
2018-10-15T05:34:33.107Z,990.33
2018-10-15T05:35:33.019Z,990.30
2018-10-15T05:36:32.970Z,990.27
2018-10-15T05:37:32.917Z,990.26
2018-10-15T05:38:32.883Z,990.24
2018-10-15T05:39:33.018Z,990.23
2018-10-15T05:40:32.844Z,990.24
2018-10-15T05:41:32.796Z,990.26
2018-10-15T05:42:32.776Z,990.25
2018-10-15T05:43:32.736Z,990.22
2018-10-15T05:44:32.864Z,990.22
2018-10-15T05:45:32.714Z,990.20
2018-10-15T05:46:32.736Z,990.19
2018-10-15T05:47:32.641Z,990.14
2018-10-15T05:48:32.607Z,990.15
2018-10-15T05:49:32.721Z,990.12
2018-10-15T05:50:32.576Z,990.07
2018-10-15T05:51:32.556Z,990.03
2018-10-15T05:52:32.552Z,989.95
2018-10-15T05:53:32.486Z,989.94
2018-10-15T05:54:32.516Z,989.90
2018-10-15T05:55:32.648Z,989.87
2018-10-15T05:56:32.398Z,989.86
2018-10-15T05:57:32.377Z,989.82
2018-10-15T05:58:32.339Z,989.80
2018-10-15T05:59:32.311Z,989.75
2018-10-15T06:00:32.311Z,989.75
2018-10-15T06:01:32.365Z,989.75
2018-10-15T06:02:32.249Z,989.69
2018-10-15T06:03:32.210Z,989.71
2018-10-15T06:04:32.186Z,989.71
2018-10-15T06:05:32.158Z,989.74
2018-10-15T06:06:32.245Z,989.72
2018-10-15T06:07:32.109Z,989.75
2018-10-15T06:08:32.078Z,989.77
2018-10-15T06:09:32.067Z,989.76
2018-10-15T06:10:32.032Z,989.75
2018-10-15T06:11:32.144Z,989.73
2018-10-15T06:12:31.967Z,989.72
2018-10-15T06:13:32.019Z,989.73
2018-10-15T06:14:31.951Z,989.69
2018-10-15T06:15:31.901Z,989.67
2018-10-15T06:16:32.032Z,989.64
2018-10-15T06:17:31.849Z,989.66
2018-10-15T06:18:31.805Z,989.65
2018-10-15T06:19:31.786Z,989.63
2018-10-15T06:20:31.755Z,989.60
2018-10-15T06:21:31.836Z,989.55
2018-10-15T06:22:31.711Z,989.51
2018-10-15T06:23:31.677Z,989.51
2018-10-15T06:24:31.654Z,989.44
2018-10-15T06:25:31.680Z,989.44
2018-10-15T06:26:31.647Z,989.41
2018-10-15T06:27:31.674Z,989.41
2018-10-15T06:28:31.554Z,989.42
2018-10-15T06:29:31.519Z,989.40
2018-10-15T06:30:31.505Z,989.37
2018-10-15T06:31:31.475Z,989.37
2018-10-15T06:32:31.445Z,989.39
2018-10-15T06:33:31.585Z,989.34
2018-10-15T06:34:31.428Z,989.31
2018-10-15T06:35:31.368Z,989.25
2018-10-15T06:36:31.337Z,989.25
2018-10-15T06:37:31.318Z,989.21
2018-10-15T06:38:31.368Z,989.20
2018-10-15T06:39:31.437Z,989.20
2018-10-15T06:40:31.237Z,989.22
2018-10-15T06:41:31.212Z,989.20
2018-10-15T06:42:31.195Z,989.15
2018-10-15T06:43:31.204Z,989.16
2018-10-15T06:44:31.212Z,989.11
2018-10-15T06:45:31.099Z,989.07
2018-10-15T06:46:31.199Z,989.03
2018-10-15T06:47:31.039Z,988.99
2018-10-15T06:48:31.036Z,988.92
2018-10-15T06:49:31.166Z,988.88
2018-10-15T06:50:30.954Z,988.82
2018-10-15T06:51:30.941Z,988.84
2018-10-15T06:52:30.921Z,988.85
2018-10-15T06:53:30.912Z,988.85
2018-10-15T06:54:31.013Z,988.88
2018-10-15T06:55:30.851Z,988.87
2018-10-15T06:56:30.828Z,988.90
2018-10-15T06:57:30.771Z,988.86
2018-10-15T06:58:30.773Z,988.82
2018-10-15T06:59:30.837Z,988.78
2018-10-15T07:00:30.704Z,988.82
2018-10-15T07:01:30.671Z,988.80
2018-10-15T07:02:30.637Z,988.81
2018-10-15T07:03:30.612Z,988.82
2018-10-15T07:04:30.574Z,988.91
2018-10-15T07:05:30.709Z,988.91
2018-10-15T07:06:30.533Z,988.92
2018-10-15T07:07:30.661Z,988.93
2018-10-15T07:08:30.478Z,988.96
2018-10-15T07:09:30.472Z,988.95
2018-10-15T07:10:30.436Z,988.92
2018-10-15T07:11:30.517Z,988.91
2018-10-15T07:12:30.394Z,988.90
2018-10-15T07:13:30.357Z,988.89
2018-10-15T07:14:30.350Z,988.85
2018-10-15T07:15:30.297Z,988.83
2018-10-15T07:16:30.284Z,988.81
2018-10-15T07:17:30.382Z,988.79
2018-10-15T07:18:30.222Z,988.78
2018-10-15T07:19:30.198Z,988.78
2018-10-15T07:20:30.191Z,988.76
2018-10-15T07:21:30.134Z,988.76
2018-10-15T07:22:30.249Z,988.71
2018-10-15T07:23:30.099Z,988.71
2018-10-15T07:24:30.060Z,988.70
2018-10-15T07:25:30.036Z,988.67
2018-10-15T07:26:30.014Z,988.66
2018-10-15T07:27:30.130Z,988.64
2018-10-15T07:28:30.014Z,988.63
2018-10-15T07:29:29.931Z,988.61
2018-10-15T07:30:29.891Z,988.61
2018-10-15T07:31:29.871Z,988.57
2018-10-15T07:32:29.999Z,988.55
2018-10-15T07:33:29.873Z,988.53
2018-10-15T07:34:29.776Z,988.52
2018-10-15T07:35:29.762Z,988.54
2018-10-15T07:36:29.743Z,988.51
2018-10-15T07:37:29.772Z,988.54
2018-10-15T07:38:29.787Z,988.57
2018-10-15T07:39:29.693Z,988.54
2018-10-15T07:40:29.615Z,988.58
2018-10-15T07:41:29.600Z,988.56
2018-10-15T07:42:29.584Z,988.56
2018-10-15T07:43:29.664Z,988.57
2018-10-15T07:44:29.518Z,988.54
2018-10-15T07:45:29.504Z,988.51
2018-10-15T07:46:29.601Z,988.54
2018-10-15T07:47:29.429Z,988.52
2018-10-15T07:48:29.458Z,988.53
2018-10-15T07:49:29.500Z,988.49
2018-10-15T07:50:29.380Z,988.46
2018-10-15T07:51:29.339Z,988.48
2018-10-15T07:52:29.306Z,988.44
2018-10-15T07:53:29.314Z,988.43
2018-10-15T07:54:29.257Z,988.44
2018-10-15T07:55:29.337Z,988.45
2018-10-15T07:56:29.221Z,988.40
2018-10-15T07:57:29.187Z,988.41
2018-10-15T07:58:29.139Z,988.41
2018-10-15T07:59:29.156Z,988.41
2018-10-15T08:00:29.295Z,988.45
2018-10-15T08:01:29.058Z,988.46
2018-10-15T08:02:29.037Z,988.43
2018-10-15T08:03:29.027Z,988.41
2018-10-15T08:04:28.997Z,988.40
2018-10-15T08:05:29.147Z,988.38
2018-10-15T08:06:28.991Z,988.36
2018-10-15T08:07:28.901Z,988.34
2018-10-15T08:08:28.886Z,988.33
2018-10-15T08:09:28.851Z,988.27
2018-10-15T08:10:28.993Z,988.28
2018-10-15T08:11:28.887Z,988.26
2018-10-15T08:12:28.779Z,988.26
2018-10-15T08:13:28.762Z,988.27
2018-10-15T08:14:28.752Z,988.30
2018-10-15T08:15:28.879Z,988.26
2018-10-15T08:16:28.823Z,988.29
2018-10-15T08:17:28.655Z,988.31
2018-10-15T08:18:28.597Z,988.28
2018-10-15T08:19:28.578Z,988.25
2018-10-15T08:20:28.609Z,988.28
2018-10-15T08:21:28.627Z,988.30
2018-10-15T08:22:28.487Z,988.30
2018-10-15T08:23:28.468Z,988.29
2018-10-15T08:24:28.440Z,988.32
2018-10-15T08:25:28.435Z,988.32
2018-10-15T08:26:28.389Z,988.29
2018-10-15T08:27:28.461Z,988.31
2018-10-15T08:28:28.423Z,988.30
2018-10-15T08:29:28.300Z,988.33
2018-10-15T08:30:28.286Z,988.33
2018-10-15T08:31:28.277Z,988.34
2018-10-15T08:32:28.248Z,988.34
2018-10-15T08:33:28.352Z,988.33
2018-10-15T08:34:28.195Z,988.33
2018-10-15T08:35:28.188Z,988.32
2018-10-15T08:36:28.128Z,988.32
2018-10-15T08:37:28.102Z,988.33
2018-10-15T08:38:28.214Z,988.33
2018-10-15T08:39:28.032Z,988.34
2018-10-15T08:40:28.001Z,988.32
2018-10-15T08:41:28.002Z,988.26
2018-10-15T08:42:27.952Z,988.24
2018-10-15T08:43:27.946Z,988.24
2018-10-15T08:44:28.021Z,988.18
2018-10-15T08:45:27.896Z,988.20
2018-10-15T08:46:27.859Z,988.15
2018-10-15T08:47:27.830Z,988.15
2018-10-15T08:48:27.814Z,988.13
2018-10-15T08:49:27.921Z,988.13
2018-10-15T08:50:27.809Z,988.08
2018-10-15T08:51:27.713Z,988.07
2018-10-15T08:52:27.767Z,988.10
2018-10-15T08:53:27.656Z,988.12
2018-10-15T08:54:27.794Z,988.11
2018-10-15T08:55:27.614Z,988.14
2018-10-15T08:56:27.599Z,988.14
2018-10-15T08:57:27.564Z,988.20
2018-10-15T08:58:27.527Z,988.19
2018-10-15T08:59:27.682Z,988.18
2018-10-15T09:00:27.469Z,988.21
2018-10-15T09:01:27.461Z,988.19
2018-10-15T09:02:27.558Z,988.17
2018-10-15T09:03:27.415Z,988.19
2018-10-15T09:04:27.383Z,988.16
2018-10-15T09:05:27.505Z,988.16
2018-10-15T09:06:27.382Z,988.13
2018-10-15T09:07:27.312Z,988.11
2018-10-15T09:08:27.385Z,988.12
2018-10-15T09:09:27.358Z,988.12
2018-10-15T09:10:27.218Z,988.12
2018-10-15T09:11:27.290Z,988.12
2018-10-15T09:12:27.286Z,988.12
2018-10-15T09:13:27.120Z,988.12
2018-10-15T09:14:27.129Z,988.12
2018-10-15T09:15:27.077Z,988.13
2018-10-15T09:16:27.069Z,988.13
2018-10-15T09:17:27.186Z,988.14
2018-10-15T09:18:26.992Z,988.14
2018-10-15T09:19:26.964Z,988.16
2018-10-15T09:20:26.959Z,988.16
2018-10-15T09:21:26.990Z,988.17
2018-10-15T09:22:26.939Z,988.18
2018-10-15T09:23:27.010Z,988.17
2018-10-15T09:24:26.841Z,988.21
2018-10-15T09:25:26.805Z,988.22
2018-10-15T09:26:26.799Z,988.21
2018-10-15T09:27:26.937Z,988.21
2018-10-15T09:28:26.882Z,988.25
2018-10-15T09:29:26.693Z,988.25
2018-10-15T09:30:26.696Z,988.24
2018-10-15T09:31:26.806Z,988.21
2018-10-15T09:32:26.616Z,988.23
2018-10-15T09:33:26.802Z,988.19
2018-10-15T09:34:26.558Z,988.18
2018-10-15T09:35:26.628Z,988.17
2018-10-15T09:36:26.524Z,988.18
2018-10-15T09:37:26.491Z,988.16
2018-10-15T09:38:26.515Z,988.16
2018-10-15T09:39:26.534Z,988.17
2018-10-15T09:40:26.406Z,988.17
2018-10-15T09:41:26.493Z,988.17
2018-10-15T09:42:26.371Z,988.15
2018-10-15T09:43:26.336Z,988.18
2018-10-15T09:44:26.299Z,988.23
2018-10-15T09:45:26.375Z,988.22
2018-10-15T09:46:26.267Z,988.23
2018-10-15T09:47:26.238Z,988.29
2018-10-15T09:48:26.207Z,988.29
2018-10-15T09:49:26.186Z,988.33
2018-10-15T09:50:26.255Z,988.36
2018-10-15T09:51:26.217Z,988.36
2018-10-15T09:52:26.078Z,988.37
2018-10-15T09:53:26.176Z,988.40
2018-10-15T09:54:26.038Z,988.41
2018-10-15T09:55:25.999Z,988.40
2018-10-15T09:56:25.970Z,988.45
2018-10-15T09:57:26.119Z,988.48
2018-10-15T09:58:25.913Z,988.51
2018-10-15T09:59:25.892Z,988.55
2018-10-15T10:00:25.889Z,988.51
2018-10-15T10:01:25.830Z,988.54
2018-10-15T10:02:25.930Z,988.58
2018-10-15T10:03:25.791Z,988.58
2018-10-15T10:04:25.777Z,988.61
2018-10-15T10:05:25.725Z,988.64
2018-10-15T10:06:25.721Z,988.59
2018-10-15T10:07:25.876Z,988.62
2018-10-15T10:08:25.670Z,988.57
2018-10-15T10:09:25.616Z,988.61
2018-10-15T10:10:25.603Z,988.60
2018-10-15T10:11:25.573Z,988.63
2018-10-15T10:12:25.686Z,988.65
2018-10-15T10:13:25.512Z,988.65
2018-10-15T10:14:25.533Z,988.61
2018-10-15T10:15:25.454Z,988.61
2018-10-15T10:16:25.441Z,988.62
2018-10-15T10:17:25.519Z,988.60
2018-10-15T10:18:25.557Z,988.59
2018-10-15T10:19:25.346Z,988.57
2018-10-15T10:20:25.322Z,988.59
2018-10-15T10:21:25.306Z,988.59
2018-10-15T10:22:25.382Z,988.59
2018-10-15T10:23:25.249Z,988.61
2018-10-15T10:24:25.325Z,988.61
2018-10-15T10:25:25.189Z,988.61
2018-10-15T10:26:25.170Z,988.61
2018-10-15T10:27:25.219Z,988.61
2018-10-15T10:28:25.180Z,988.65
2018-10-15T10:29:25.225Z,988.63
2018-10-15T10:30:25.228Z,988.60
2018-10-15T10:31:25.028Z,988.59
2018-10-15T10:32:25.030Z,988.59
2018-10-15T10:33:24.984Z,988.56
2018-10-15T10:34:24.942Z,988.56
2018-10-15T10:35:25.170Z,988.57
2018-10-15T10:36:24.907Z,988.57
2018-10-15T10:37:24.863Z,988.54
2018-10-15T10:38:24.851Z,988.53
2018-10-15T10:39:24.839Z,988.50
2018-10-15T10:40:24.941Z,988.50
2018-10-15T10:41:24.764Z,988.52
2018-10-15T10:42:24.729Z,988.54
2018-10-15T10:43:24.730Z,988.53
2018-10-15T10:44:24.691Z,988.54
2018-10-15T10:45:24.787Z,988.55
2018-10-15T10:46:24.625Z,988.52
2018-10-15T10:47:24.596Z,988.49
2018-10-15T10:48:24.572Z,988.53
2018-10-15T10:49:24.569Z,988.53
2018-10-15T10:50:24.666Z,988.50
2018-10-15T10:51:24.492Z,988.49
2018-10-15T10:52:24.474Z,988.53
2018-10-15T10:53:24.454Z,988.61
2018-10-15T10:54:24.412Z,988.58
2018-10-15T10:55:24.380Z,988.62
2018-10-15T10:56:24.459Z,988.62
2018-10-15T10:57:24.384Z,988.66
2018-10-15T10:58:24.341Z,988.67
2018-10-15T10:59:24.301Z,988.67
2018-10-15T11:00:24.237Z,988.67
2018-10-15T11:01:24.234Z,988.71
2018-10-15T11:02:24.423Z,988.70
2018-10-15T11:03:24.178Z,988.67
2018-10-15T11:04:24.160Z,988.68
2018-10-15T11:05:24.109Z,988.69
2018-10-15T11:06:24.091Z,988.72
2018-10-15T11:07:24.176Z,988.71
2018-10-15T11:08:24.069Z,988.74
2018-10-15T11:09:24.001Z,988.74
2018-10-15T11:10:23.972Z,988.78
2018-10-15T11:11:23.952Z,988.84
2018-10-15T11:12:24.072Z,988.84
2018-10-15T11:13:23.898Z,988.88
2018-10-15T11:14:23.873Z,988.91
2018-10-15T11:15:23.849Z,988.96
2018-10-15T11:16:23.811Z,988.94
2018-10-15T11:17:23.891Z,988.96
2018-10-15T11:18:23.751Z,989.00
2018-10-15T11:19:23.789Z,989.00
2018-10-15T11:20:23.731Z,989.04
2018-10-15T11:21:23.683Z,989.06
2018-10-15T11:22:23.878Z,989.07
2018-10-15T11:23:23.593Z,989.14
2018-10-15T11:24:23.681Z,989.13
2018-10-15T11:25:23.580Z,989.15
2018-10-15T11:26:23.553Z,989.17
2018-10-15T11:27:23.611Z,989.18
2018-10-15T11:28:23.473Z,989.22
2018-10-15T11:29:23.461Z,989.19
2018-10-15T11:30:23.404Z,989.23
2018-10-15T11:31:23.422Z,989.24
2018-10-15T11:32:23.365Z,989.25
2018-10-15T11:33:23.433Z,989.27
2018-10-15T11:34:23.515Z,989.29
2018-10-15T11:35:23.306Z,989.30
2018-10-15T11:36:23.285Z,989.29
2018-10-15T11:37:23.262Z,989.30
2018-10-15T11:38:23.533Z,989.31
2018-10-15T11:39:23.426Z,989.26
2018-10-15T11:40:23.236Z,989.24
2018-10-15T11:41:23.135Z,989.25
2018-10-15T11:42:23.128Z,989.27
2018-10-15T11:43:23.150Z,989.25
2018-10-15T11:44:23.173Z,989.27
2018-10-15T11:45:23.079Z,989.24
2018-10-15T11:46:23.051Z,989.27
2018-10-15T11:47:22.977Z,989.30
2018-10-15T11:48:22.966Z,989.28
2018-10-15T11:49:23.028Z,989.32
2018-10-15T11:50:22.908Z,989.30
2018-10-15T11:51:22.941Z,989.35
2018-10-15T11:52:22.901Z,989.35
2018-10-15T11:53:22.864Z,989.39
2018-10-15T11:54:22.889Z,989.36
2018-10-15T11:55:22.801Z,989.40
2018-10-15T11:56:22.751Z,989.40
2018-10-15T11:57:22.722Z,989.45
2018-10-15T11:58:22.684Z,989.49
2018-10-15T11:59:23.044Z,989.49
2018-10-15T12:00:22.642Z,989.52
2018-10-15T12:01:22.939Z,989.50
2018-10-15T12:02:22.607Z,989.51
2018-10-15T12:03:22.560Z,989.46
2018-10-15T12:04:22.577Z,989.50
2018-10-15T12:05:22.490Z,989.54
2018-10-15T12:06:22.484Z,989.50
2018-10-15T12:07:22.450Z,989.48
2018-10-15T12:08:23.839Z,989.54
2018-10-15T12:09:22.453Z,989.52
2018-10-15T12:10:23.425Z,989.55
2018-10-15T12:11:22.361Z,989.56
2018-10-15T12:12:22.369Z,989.56
2018-10-15T12:13:22.395Z,989.61
2018-10-15T12:14:22.289Z,989.59
2018-10-15T12:15:22.243Z,989.61
2018-10-15T12:16:22.458Z,989.61
2018-10-15T12:17:22.187Z,989.61
2018-10-15T12:18:22.166Z,989.62
2018-10-15T12:19:22.156Z,989.61
2018-10-15T12:20:22.208Z,989.62
2018-10-15T12:21:22.190Z,989.64
2018-10-15T12:22:22.063Z,989.63
2018-10-15T12:23:22.069Z,989.61
2018-10-15T12:24:22.151Z,989.63
2018-10-15T12:25:22.023Z,989.66
2018-10-15T12:26:22.049Z,989.67
2018-10-15T12:27:23.813Z,989.63
2018-10-15T12:28:22.052Z,989.66
2018-10-15T12:29:21.893Z,989.63
2018-10-15T12:30:21.919Z,989.67
2018-10-15T12:31:25.065Z,989.66
2018-10-15T12:32:21.781Z,989.67
2018-10-15T12:33:21.781Z,989.65
2018-10-15T12:34:23.122Z,989.70
2018-10-15T12:35:22.760Z,989.70
2018-10-15T12:36:23.236Z,989.70
2018-10-15T12:37:24.799Z,989.76
2018-10-15T12:38:23.413Z,989.71
2018-10-15T12:39:23.397Z,989.69
2018-10-15T12:40:21.542Z,989.72